• Join FlightAware (Why Join?)
  • Login
  • US Flag 
02:37AM EDT


 

Airport Tracker/Info


-or-


 

Live Flight TrackerFlight Track Log ✈ N156KT ✈ 08-Jun-2014 ✈ KPDX - KCVO

Flight Track Log - Related Links

Times and Time Zones

All times are in EDT time to prevent confusion due to time zone crossing. See the N156KT flight status page for this flight to view local times or setup timezone preferences in your user account.

Time Position Orientation Groundspeed Altitude Reporting Facility
EDT Latitude Longitude Course Direction KTS MPH feet Rate Location/Type
01:58PM 45.5967 -122.6000 273° West 106 122 400  Level Seattle Center
01:59PM 45.5981 -122.6394 273° West 109 125 1,300 960 Climbing Seattle Center
02:00PM 45.5736 -122.6681 219° Southwest 106 122 2,400 900 Climbing Seattle Center
02:01PM 45.5483 -122.6936 215° Southwest 117 135 3,200 660 Climbing Seattle Center
02:03PM 45.5192 -122.7208 213° Southwest 120 138 3,900 600 Climbing Seattle Center
02:04PM 45.4794 -122.7278 187° South 136 157 4,500 300 Climbing Seattle Center
02:04PM 45.4506 -122.7456 203° Southwest 159 183 4,500  Level Seattle Center
02:05PM 45.4381 -122.7531 203° Southwest 152 175 4,500  Level Seattle Center
02:06PM 45.4006 -122.7781 205° Southwest 162 186 4,500  Level Seattle Center
02:07PM 45.3581 -122.8033 203° Southwest 157 181 4,500  Level Seattle Center
02:08PM 45.3136 -122.8292 202° Southwest 158 182 4,500  Level Seattle Center
02:09PM 45.2719 -122.8533 202° Southwest 160 184 4,500  Level Seattle Center
02:10PM 45.2308 -122.8756 201° Southwest 160 184 4,500  Level Seattle Center
02:11PM 45.1864 -122.9008 202° Southwest 161 185 4,500  Level Seattle Center
02:12PM 45.1450 -122.9250 202° Southwest 161 185 4,500 -60 Level Seattle Center
02:13PM 45.1081 -122.9475 203° Southwest 160 184 4,400 -60 Descending Seattle Center
02:14PM 45.0669 -122.9706 202° Southwest 160 184 4,400  Level Seattle Center
02:15PM 45.0242 -122.9950 202° Southwest 160 184 4,400  Level Seattle Center
02:16PM 44.9828 -123.0189 202° Southwest 161 185 4,400  Level Seattle Center
02:17PM 44.9414 -123.0422 202° Southwest 161 185 4,400  Level Seattle Center
02:18PM 44.8911 -123.0694 201° Southwest 161 185 4,400  Level Seattle Center
02:19PM 44.8494 -123.0928 202° Southwest 161 185 4,400  Level Seattle Center
02:20PM 44.8078 -123.1158 201° Southwest 160 184 4,400  Level Seattle Center
02:21PM 44.7667 -123.1392 202° Southwest 160 184 4,400 -60 Level Seattle Center
02:22PM 44.7256 -123.1614 201° Southwest 160 184 4,300 -120 Descending Seattle Center